Blaydon, United Kingdom
Current Conditions -  °F | °C
As of 11:50 PM on Saturday 20 Dec 2014 (Local Time) from EGNT Reporting Station
Scattered Clouds Scattered Clouds  
Wind Chill: 39°   Ceiling: Unl
Heat Index: 45°   Visibility: 6mi
Dew Point: 41°   Wind: 12mph
Humidity: 87%   Direction: 250°WSW
Pressure: 30.18"   Gusts: NA
Location:  54.96°N, 1.71°W
Report Text: EGNT 202350Z 25010KT 9999 SCT014 07/05 Q1022
Loading
Personal Weather Stations






























Interactive Weather Map New forecast layout! Learn more

10-Day Weather Forecast

Advertisements
Track Severe Weather on mobile